Terminal Aerodrome Forecast
Issued by NWS Detroit/Pontiac, MI

Home | Current Version | Previous Version | Text Only | Print | Product List | Glossary On
Versions: 1 2 3 4 5 6 7 8 9 10 11 12 13 14 15 16 17 18 19 20 21 22 23 24 25 26 27
000
FTUS43 KDTX 160200 AAA
TAFDTW
TAF AMD
KDTW 160208Z 1602/1706 23007KT P6SM -SHRA SCT030 OVC050
     FM160300 30006KT P6SM SCT030 OVC050
      TEMPO 1603/1605 BKN030
     FM160500 32006KT 6SM BR SCT009 OVC015
     FM160900 34005KT P6SM SCT015
     FM161400 35007KT P6SM SCT025
     FM161600 31008KT P6SM BKN040
     FM162200 26006KT P6SM SCT050
     FM170200 27003KT P6SM SKC=

USA.gov is the U.S. government's official web portal to all federal, state and local government web resources and services.